Kezdőlap
METAR-TAF:

METAR-TAF

Repülőterek :

Agartala, India

földrajzi szélesség: 23-53-24N, földrajzi hosszúság: 91-14-32E, magasság: 14 m

Jelenlegi meteorológiai megfigyelések

A jelentés 34 perccel ezelõtt készült, 03:00 UTC
Keleti szél 3 kt
Hőmérséklet 31°C
Páratartalom 59%
Légköri nyomás 1012 hPa
Látótávolság: 3200 m
Kevés felhő 2000 lábon
Száraz légköri homály,

METAR: VEAT 130300Z 10003KT 3200 HZ FEW020 31/22 Q1012 NOSIG

Idő: 09:04 (03:34 UTC)

Előrejelzés

A jelentés 1 órával és 34 perccel ezelõtt készült, 02:00 UTC
Az előrejelzés 13-én 03 óra UTC és 13-én 12 óra UTC között érvényes
Északkeleti szél 3 kt
Látótávolság: 3500 m
Kevés felhő 2000 lábon
Száraz légköri homály
13-én 05 óra UTC és 13-én 08 óra UTC között fokozatosan kialakuló
Észak-északnyugati szél 5 kt
Látótávolság: 5000 m
Száraz légköri homály,

TAF: VEAT 130200Z 1303/1312 05003KT 3500 HZ FEW020 BECMG 1305/1308 33005KT 5000 HZ

Meteorológiai megfigyelések és előrejelzések több, mint 4000 repülőtéren (METAR és TAF jelentéseket).

A térképen piros és sárga pontok jelzik az elérhető meteorológiai állomásokat.

Mozgassa az egeret a pont fölött, hogy megjelenjen az állomás neve.

Azután kattintson az időjárási megfigyelések és előrejelzések megtekintéséhez.

A térkép megváltoztatása: kattintson a fekete keresztel jelölt zöld gombra ráközelítéshez, a vonallal jelölt zöld gombra távolításhoz, vagy a zöld nyilakra a szomszédos térképek eléréséhez.


METAR-TAF: